Time;durP1;ratioP1;P1;durP2;ratioP2;P2;SDS_P1;SDS_P2;PMS_P1;PMS_P2;Temp;Humidity;BMP_temperature;BMP_pressure;BME280_temperature;BME280_humidity;BME280_pressure;Samples;Min_cycle;Max_cycle;Signal;HPM_P1;HPM_P2
2022/03/28 00:02:22;;;;;;;2.10;1.83;;;23.00;51.40;;;;;;5025780;28;20177;-90
2022/03/28 00:04:47;;;;;;;1.93;1.67;;;23.00;51.40;;;;;;5025440;28;20454;-90
2022/03/28 00:07:13;;;;;;;2.20;2.00;;;23.00;51.40;;;;;;5025906;28;20265;-89
2022/03/28 00:09:39;;;;;;;2.13;1.87;;;23.00;51.40;;;;;;5025884;28;20189;-90
2022/03/28 00:12:05;;;;;;;2.43;1.73;;;23.00;51.40;;;;;;5008912;28;20181;-89
2022/03/28 00:14:31;;;;;;;2.00;1.80;;;23.00;51.40;;;;;;5013074;28;20185;-89
2022/03/28 00:16:57;;;;;;;1.93;1.73;;;23.00;51.40;;;;;;5009821;28;20834;-89
2022/03/28 00:19:23;;;;;;;2.43;1.90;;;23.00;51.40;;;;;;5026842;28;20918;-89
2022/03/28 00:25:11;;;;;;;3.50;1.90;;;23.00;51.40;;;;;;5005391;28;20180;-90
2022/03/28 00:27:38;;;;;;;1.73;1.60;;;23.00;51.40;;;;;;5011504;28;20439;-89
2022/03/28 00:30:06;;;;;;;2.17;1.83;;;23.00;51.40;;;;;;5011096;28;20416;-89
2022/03/28 00:32:32;;;;;;;1.77;1.57;;;23.00;51.50;;;;;;4997262;28;20428;-89
2022/03/28 00:34:58;;;;;;;1.90;1.80;;;22.90;51.40;;;;;;5011134;28;21421;-89
2022/03/28 00:37:24;;;;;;;2.03;1.83;;;23.00;51.40;;;;;;5026110;28;20169;-89
2022/03/28 00:39:50;;;;;;;1.73;1.60;;;23.00;51.40;;;;;;5023560;28;20426;-89
2022/03/28 00:42:16;;;;;;;1.80;1.70;;;22.90;51.40;;;;;;5026020;28;20424;-89
2022/03/28 00:48:05;;;;;;;2.47;1.83;;;22.90;51.40;;;;;;5009162;28;20208;-89
2022/03/28 00:50:32;;;;;;;1.90;1.67;;;22.90;51.40;;;;;;5011024;28;20925;-89
2022/03/28 00:52:59;;;;;;;1.77;1.67;;;22.90;51.40;;;;;;5010876;28;20483;-90
2022/03/28 00:55:25;;;;;;;2.30;1.60;;;22.90;51.40;;;;;;5009136;28;20479;-89
2022/03/28 00:57:51;;;;;;;1.90;1.70;;;22.90;51.40;;;;;;5009477;28;20422;-90
2022/03/28 01:00:17;;;;;;;2.03;1.80;;;22.90;51.40;;;;;;5006078;28;20451;-90
2022/03/28 01:02:44;;;;;;;1.97;1.77;;;22.90;51.40;;;;;;5012663;28;20344;-90
2022/03/28 01:05:11;;;;;;;1.70;1.60;;;22.90;51.40;;;;;;5010284;28;20431;-90
2022/03/28 01:07:42;;;;;;;1.50;1.40;;;22.90;51.40;;;;;;5013090;28;20424;-90
2022/03/28 01:10:10;;;;;;;2.10;1.83;;;23.00;51.50;;;;;;5003599;28;20455;-91
2022/03/28 01:12:37;;;;;;;2.03;1.83;;;22.90;51.40;;;;;;5008852;28;20440;-87
2022/03/28 01:15:04;;;;;;;2.07;1.47;;;22.90;51.40;;;;;;5006709;28;20487;-89
2022/03/28 01:20:16;;;;;;;1.83;1.70;;;22.90;51.40;;;;;;5006933;28;20387;-90
2022/03/28 01:22:41;;;;;;;2.20;1.70;;;22.90;51.40;;;;;;5008369;28;20447;-90
2022/03/28 01:28:30;;;;;;;2.57;1.90;;;22.90;51.40;;;;;;5008348;28;20241;-89
2022/03/28 01:30:55;;;;;;;1.87;1.47;;;22.90;51.40;;;;;;5023812;28;20417;-90
2022/03/28 01:33:23;;;;;;;2.20;1.77;;;22.90;51.40;;;;;;5024083;28;20180;-89
2022/03/28 01:35:49;;;;;;;2.00;1.70;;;22.90;51.40;;;;;;5022077;28;20268;-90
2022/03/28 01:38:17;;;;;;;1.50;1.37;;;22.90;51.40;;;;;;5007870;28;20423;-90
2022/03/28 01:40:51;;;;;;;2.30;2.10;;;22.90;51.40;;;;;;5006838;28;20420;-89
2022/03/28 01:43:18;;;;;;;2.10;1.90;;;22.90;51.40;;;;;;5006207;28;20423;-89
2022/03/28 01:45:45;;;;;;;1.43;1.33;;;22.90;51.40;;;;;;5007954;28;20480;-89
2022/03/28 01:48:12;;;;;;;1.80;1.50;;;22.90;52.00;;;;;;5005961;28;20436;-88
2022/03/28 01:50:38;;;;;;;1.90;1.67;;;22.90;51.40;;;;;;5006044;28;20427;-88
2022/03/28 01:53:04;;;;;;;2.07;1.87;;;22.90;51.40;;;;;;5007516;28;20480;-88
2022/03/28 01:55:31;;;;;;;1.87;1.60;;;22.90;51.40;;;;;;5007204;28;20546;-89
2022/03/28 01:57:57;;;;;;;1.60;1.43;;;22.90;51.40;;;;;;5008885;28;20412;-89
2022/03/28 02:00:27;;;;;;;1.70;1.40;;;22.90;51.40;;;;;;5007187;28;20417;-88
2022/03/28 02:02:53;;;;;;;2.00;1.77;;;22.90;51.40;;;;;;5005739;28;20423;-89
2022/03/28 02:05:19;;;;;;;1.60;1.50;;;22.90;51.40;;;;;;5008313;28;20463;-88
2022/03/28 02:07:47;;;;;;;2.30;2.00;;;22.90;51.40;;;;;;5007135;28;20427;-88
2022/03/28 02:10:15;;;;;;;1.87;1.57;;;22.90;51.40;;;;;;5007315;28;20416;-89
2022/03/28 02:12:42;;;;;;;1.97;1.77;;;22.90;51.40;;;;;;5008387;28;20419;-89
2022/03/28 02:15:10;;;;;;;2.50;1.60;;;22.90;51.40;;;;;;5007963;28;20459;-89
2022/03/28 02:17:36;;;;;;;1.83;1.63;;;22.90;51.40;;;;;;5007125;28;20416;-90
2022/03/28 02:20:08;;;;;;;3.00;1.60;;;22.90;51.40;;;;;;5007270;28;20420;-88
2022/03/28 02:22:34;;;;;;;1.47;1.37;;;22.90;51.40;;;;;;5009476;28;20419;-88
2022/03/28 02:25:00;;;;;;;2.00;1.80;;;22.90;51.40;;;;;;5010167;28;20428;-89
2022/03/28 02:27:26;;;;;;;1.90;1.70;;;22.90;51.40;;;;;;5011062;28;20475;-89
2022/03/28 02:29:52;;;;;;;1.60;1.33;;;22.90;51.40;;;;;;5012134;28;20188;-88
2022/03/28 02:32:18;;;;;;;1.83;1.63;;;22.90;51.40;;;;;;5026605;28;20420;-89
2022/03/28 02:34:44;;;;;;;1.90;1.40;;;22.90;51.40;;;;;;5009229;28;20181;-90
2022/03/28 02:37:09;;;;;;;1.60;1.50;;;22.90;51.40;;;;;;5011221;28;20408;-89
2022/03/28 02:39:35;;;;;;;2.30;2.10;;;22.90;51.40;;;;;;5025939;28;20200;-88
2022/03/28 02:42:02;;;;;;;1.83;1.67;;;22.90;51.40;;;;;;5026063;28;20172;-88
2022/03/28 02:44:27;;;;;;;1.60;1.40;;;22.90;51.40;;;;;;5011101;28;20822;-88
2022/03/28 02:46:53;;;;;;;2.10;1.70;;;22.90;51.00;;;;;;5009705;28;20487;-89
2022/03/28 02:49:19;;;;;;;2.90;1.93;;;22.90;51.40;;;;;;5010526;28;20188;-90
2022/03/28 02:51:45;;;;;;;1.70;1.50;;;22.90;51.40;;;;;;5025294;28;20183;-89
2022/03/28 02:54:11;;;;;;;2.00;1.80;;;22.90;51.40;;;;;;5009694;28;20165;-90
2022/03/28 02:56:37;;;;;;;2.03;1.50;;;22.90;51.40;;;;;;5009283;28;20463;-90
2022/03/28 02:59:03;;;;;;;2.10;1.73;;;22.90;51.40;;;;;;5025995;28;20415;-89
2022/03/28 03:01:29;;;;;;;2.30;1.50;;;22.90;51.40;;;;;;5010631;28;20165;-89
2022/03/28 03:03:55;;;;;;;1.77;1.30;;;22.90;51.40;;;;;;5025266;28;20439;-89
2022/03/28 03:09:42;;;;;;;1.60;1.40;;;22.90;51.40;;;;;;5010235;28;20157;-88
2022/03/28 03:12:09;;;;;;;1.97;1.67;;;22.80;51.40;;;;;;5010302;28;20857;-90
2022/03/28 03:14:35;;;;;;;1.70;1.50;;;22.80;51.40;;;;;;5009486;28;20181;-90
2022/03/28 03:17:01;;;;;;;1.70;1.60;;;22.80;51.40;;;;;;5009746;28;20446;-90
2022/03/28 03:19:27;;;;;;;2.03;1.83;;;22.80;51.40;;;;;;5025230;28;20176;-90
2022/03/28 03:21:52;;;;;;;1.63;1.50;;;22.90;51.50;;;;;;5025433;28;20424;-90
2022/03/28 03:24:18;;;;;;;1.80;1.40;;;22.90;51.50;;;;;;5008836;28;20174;-89
2022/03/28 03:26:44;;;;;;;1.80;1.60;;;22.80;51.40;;;;;;5008722;28;20181;-90
2022/03/28 03:29:10;;;;;;;2.70;2.50;;;22.80;51.40;;;;;;5010244;28;20181;-89
2022/03/28 03:31:37;;;;;;;1.73;1.40;;;22.90;51.40;;;;;;5009699;28;20260;-89
2022/03/28 03:34:03;;;;;;;1.90;1.67;;;22.90;51.40;;;;;;5008684;28;20169;-90
2022/03/28 03:36:29;;;;;;;1.43;1.30;;;22.80;51.40;;;;;;5008737;28;20459;-90
2022/03/28 03:38:55;;;;;;;1.63;1.33;;;22.90;51.40;;;;;;5009347;28;20455;-90
2022/03/28 03:41:21;;;;;;;1.57;1.47;;;22.90;51.50;;;;;;5024838;28;20412;-89
2022/03/28 03:43:47;;;;;;;1.83;1.50;;;22.80;51.40;;;;;;5024326;28;20420;-89
2022/03/28 03:49:35;;;;;;;1.93;1.73;;;22.90;51.40;;;;;;5009761;28;20207;-90
2022/03/28 03:52:01;;;;;;;1.50;1.40;;;22.80;51.40;;;;;;5025775;28;20440;-90
2022/03/28 03:54:28;;;;;;;1.50;1.33;;;22.80;51.40;;;;;;4992281;28;20914;-90
2022/03/28 03:56:53;;;;;;;1.70;1.50;;;22.80;51.40;;;;;;5009071;28;20431;-90
2022/03/28 03:59:19;;;;;;;1.90;1.70;;;22.80;51.40;;;;;;5007775;28;20431;-90
2022/03/28 04:01:45;;;;;;;1.87;1.70;;;22.80;51.40;;;;;;5024609;28;20737;-90
2022/03/28 04:04:12;;;;;;;1.60;1.37;;;22.80;51.40;;;;;;5024491;28;20177;-90
2022/03/28 04:06:39;;;;;;;1.83;1.40;;;22.80;51.40;;;;;;5010107;28;20169;-90
2022/03/28 04:09:05;;;;;;;1.50;1.40;;;22.80;51.40;;;;;;5007776;28;20452;-90
2022/03/28 04:11:31;;;;;;;1.80;1.47;;;22.80;51.40;;;;;;5008900;28;20503;-90
2022/03/28 04:13:57;;;;;;;1.70;1.60;;;22.80;51.40;;;;;;5008747;28;20412;-90
2022/03/28 04:16:26;;;;;;;2.80;1.50;;;22.80;51.40;;;;;;5007461;28;20460;-90
2022/03/28 04:18:52;;;;;;;1.47;1.20;;;22.80;51.40;;;;;;5024687;28;20177;-90
2022/03/28 04:21:18;;;;;;;1.43;1.33;;;22.80;51.40;;;;;;5007644;28;20428;-90
2022/03/28 04:23:44;;;;;;;2.20;1.90;;;22.80;51.50;;;;;;5023750;28;20177;-90
2022/03/28 04:26:10;;;;;;;1.50;1.40;;;22.80;51.40;;;;;;5024305;28;20189;-89
2022/03/28 04:28:37;;;;;;;1.40;1.30;;;22.80;51.40;;;;;;5007787;28;20523;-90
2022/03/28 04:31:03;;;;;;;1.50;1.40;;;22.80;51.40;;;;;;5009045;28;20495;-90
2022/03/28 04:33:32;;;;;;;2.00;1.90;;;22.80;51.40;;;;;;5026757;28;20420;-91
2022/03/28 04:35:57;;;;;;;1.70;1.43;;;22.80;51.40;;;;;;5010686;28;20456;-90
2022/03/28 04:38:25;;;;;;;1.40;1.30;;;22.80;51.40;;;;;;5026290;28;20480;-90
2022/03/28 04:40:51;;;;;;;1.50;1.40;;;22.80;51.40;;;;;;5027266;28;20173;-90
2022/03/28 04:43:17;;;;;;;1.70;1.50;;;22.80;51.40;;;;;;5011648;28;20412;-91
2022/03/28 04:45:44;;;;;;;2.00;1.80;;;22.80;51.40;;;;;;5026891;28;20436;-91
2022/03/28 04:48:10;;;;;;;1.40;1.20;;;22.80;51.40;;;;;;4994370;28;20420;-91
2022/03/28 04:51:26;;;;;;;1.70;1.40;;;22.80;51.40;;;;;;4994457;28;20440;-90
2022/03/28 04:53:52;;;;;;;2.23;2.07;;;22.90;51.50;;;;;;5009905;28;20432;-89
2022/03/28 04:56:18;;;;;;;2.37;1.40;;;22.80;51.40;;;;;;5011547;28;20478;-89
2022/03/28 05:02:06;;;;;;;1.63;1.53;;;22.80;51.40;;;;;;5011268;28;20191;-90
2022/03/28 05:04:37;;;;;;;1.37;1.27;;;22.80;51.50;;;;;;5026963;28;20413;-91
2022/03/28 05:07:04;;;;;;;1.83;1.60;;;22.80;51.50;;;;;;5027891;28;20420;-90
2022/03/28 05:10:14;;;;;;;2.80;1.60;;;22.80;51.50;;;;;;5011221;28;20417;-89
2022/03/28 05:12:40;;;;;;;1.60;1.50;;;22.80;51.50;;;;;;5017592;28;20396;-90
2022/03/28 05:15:06;;;;;;;2.47;1.40;;;22.80;51.50;;;;;;5012013;28;20452;-89
2022/03/28 05:17:32;;;;;;;1.60;1.50;;;22.80;51.50;;;;;;5010469;28;20707;-92
2022/03/28 05:19:59;;;;;;;1.80;1.70;;;22.80;51.50;;;;;;5025483;28;20412;-91
2022/03/28 05:22:26;;;;;;;1.57;1.47;;;22.80;51.50;;;;;;5014959;28;20181;-91
2022/03/28 05:24:53;;;;;;;1.93;1.73;;;22.80;51.50;;;;;;5016769;28;20415;-90
2022/03/28 05:27:19;;;;;;;2.03;1.67;;;22.80;51.40;;;;;;5015155;28;20424;-91
2022/03/28 05:29:45;;;;;;;1.70;1.60;;;22.80;51.50;;;;;;5009702;28;20439;-91
2022/03/28 05:32:14;;;;;;;1.83;1.50;;;22.80;51.40;;;;;;4997619;28;20424;-90
2022/03/28 05:34:39;;;;;;;1.47;1.37;;;22.80;51.40;;;;;;5009330;28;20424;-91
2022/03/28 05:37:10;;;;;;;1.80;1.47;;;22.80;51.40;;;;;;5011938;28;20408;-91
2022/03/28 05:39:36;;;;;;;2.13;1.87;;;22.90;51.50;;;;;;5012868;28;20431;-91
2022/03/28 05:42:07;;;;;;;1.73;1.43;;;22.80;51.40;;;;;;5010397;28;20467;-91
2022/03/28 05:44:33;;;;;;;1.67;1.40;;;22.80;51.40;;;;;;5013258;28;20416;-91
2022/03/28 05:46:59;;;;;;;1.40;1.30;;;22.80;51.40;;;;;;5011797;28;20411;-90
2022/03/28 05:49:25;;;;;;;2.10;1.57;;;22.80;51.40;;;;;;4995512;28;20443;-91
2022/03/28 05:51:52;;;;;;;1.43;1.33;;;22.90;51.50;;;;;;5012661;28;20438;-90
2022/03/28 05:54:19;;;;;;;1.53;1.43;;;22.80;51.40;;;;;;5015061;28;20487;-90
2022/03/28 05:56:45;;;;;;;1.50;1.40;;;22.80;51.40;;;;;;5011006;28;20462;-92
2022/03/28 05:59:11;;;;;;;3.70;1.60;;;22.80;51.40;;;;;;5009047;28;20420;-91
2022/03/28 06:01:40;;;;;;;2.03;1.23;;;22.90;51.50;;;;;;5011326;28;20455;-91
2022/03/28 06:04:06;;;;;;;1.73;1.50;;;22.90;51.50;;;;;;5005528;28;20416;-92
2022/03/28 06:06:32;;;;;;;1.80;1.60;;;22.80;51.40;;;;;;5010695;28;21008;-90
2022/03/28 06:08:58;;;;;;;2.10;1.80;;;22.80;51.40;;;;;;5010520;28;20183;-91
2022/03/28 06:11:27;;;;;;;3.57;1.43;;;22.90;51.50;;;;;;5010474;28;20428;-91
2022/03/28 06:13:57;;;;;;;1.63;1.40;;;22.80;51.40;;;;;;5010723;28;20508;-90
2022/03/28 06:16:23;;;;;;;1.60;1.50;;;22.90;51.50;;;;;;5015139;28;20452;-92
2022/03/28 06:18:49;;;;;;;2.20;1.47;;;22.90;51.50;;;;;;5011153;28;20403;-91
2022/03/28 06:21:15;;;;;;;2.13;1.93;;;22.90;51.50;;;;;;5025322;28;20463;-91
2022/03/28 06:23:41;;;;;;;1.90;1.70;;;22.90;51.50;;;;;;5012304;28;20280;-92
2022/03/28 06:26:10;;;;;;;2.53;1.70;;;22.80;51.50;;;;;;5011690;28;20645;-91
2022/03/28 06:28:40;;;;;;;4.17;2.27;;;22.90;51.50;;;;;;5022672;28;20177;-92
2022/03/28 06:31:08;;;;;;;2.10;1.70;;;22.90;51.50;;;;;;5005782;28;20413;-90
2022/03/28 06:33:36;;;;;;;1.90;1.70;;;22.90;51.50;;;;;;5012447;28;20507;-91
2022/03/28 06:36:03;;;;;;;1.90;1.40;;;22.90;51.50;;;;;;5010945;28;20527;-91
2022/03/28 06:38:29;;;;;;;2.70;1.90;;;22.90;51.50;;;;;;5011675;28;20416;-90
2022/03/28 06:40:55;;;;;;;2.13;1.93;;;22.90;51.50;;;;;;5010809;28;20475;-91
2022/03/28 06:43:21;;;;;;;1.60;1.40;;;22.90;51.50;;;;;;5012141;28;20177;-91
2022/03/28 06:45:47;;;;;;;1.57;1.30;;;22.90;51.50;;;;;;5022467;28;20903;-91
2022/03/28 06:48:16;;;;;;;1.80;1.70;;;22.90;51.50;;;;;;5016826;28;20188;-92
2022/03/28 06:50:54;;;;;;;3.00;1.70;;;22.90;51.50;;;;;;5010993;28;20416;-91
2022/03/28 06:53:25;;;;;;;3.00;1.53;;;22.90;51.50;;;;;;5011435;28;20427;-90
2022/03/28 06:55:51;;;;;;;2.10;1.80;;;22.90;51.50;;;;;;5008799;28;20459;-91
2022/03/28 06:58:20;;;;;;;2.20;2.00;;;22.90;51.50;;;;;;5012345;28;20424;-90
2022/03/28 07:00:46;;;;;;;4.03;2.00;;;22.90;51.50;;;;;;5022989;28;20176;-90
2022/03/28 07:35:01;;;;;;;1.60;1.50;;;22.80;51.60;;;;;;4819776;29;20422;-91
2022/03/28 07:38:12;;;;;;;;;;;;;;;;;;;;;
2022/03/28 07:48:06;;;;;;;2.30;1.70;;;22.80;51.70;;;;;;4812462;29;20415;-91
2022/03/28 07:50:55;;;;;;;2.27;1.97;;;22.80;51.70;;;;;;4860198;29;20430;-90
2022/03/28 08:01:30;;;;;;;2.57;1.90;;;22.80;51.70;;;;;;4932534;29;20505;-91
2022/03/28 08:25:32;;;;;;;2.80;1.90;;;22.80;51.70;;;;;;4785469;30;20926;-91
2022/03/28 08:35:38;;;;;;;;;;;;;;;;;;;;;
2022/03/28 08:48:37;;;;;;;;;;;;;;;;;;;;;
2022/03/28 08:51:35;;;;;;;2.00;1.50;;;22.90;51.80;;;;;;4837927;29;20488;-91
2022/03/28 08:54:23;;;;;;;;;;;;;;;;;;;;;
2022/03/28 09:10:56;;;;;;;2.67;1.60;;;22.90;51.70;;;;;;4857797;29;20451;-91
2022/03/28 09:24:24;;;;;;;1.73;1.47;;;22.90;51.80;;;;;;4837892;29;20441;-91
2022/03/28 09:27:25;;;;;;;2.47;1.63;;;22.90;51.80;;;;;;4821878;29;20462;-91
2022/03/28 09:30:30;;;;;;;2.20;1.80;;;22.90;51.80;;;;;;4800942;30;20422;-91
2022/03/28 09:33:06;;;;;;;1.60;1.50;;;22.90;51.70;;;;;;4785237;30;20442;-91
2022/03/28 09:35:52;;;;;;;2.50;1.80;;;22.90;51.70;;;;;;4820716;29;20472;-91
2022/03/28 09:39:13;;;;;;;1.47;1.33;;;22.90;51.70;;;;;;4874631;29;20541;-91
2022/03/28 09:52:53;;;;;;;2.50;1.40;;;22.90;51.70;;;;;;4800630;30;20454;-91
2022/03/28 09:55:19;;;;;;;1.60;1.43;;;22.90;51.70;;;;;;4773935;30;20474;-91
2022/03/28 09:57:44;;;;;;;2.20;1.60;;;22.90;51.80;;;;;;4810822;29;20439;-89
2022/03/28 10:00:18;;;;;;;2.57;1.40;;;22.90;51.80;;;;;;4836376;29;20191;-89
2022/03/28 10:02:45;;;;;;;2.37;1.43;;;23.00;51.80;;;;;;4837153;29;20270;-89
2022/03/28 10:05:11;;;;;;;1.90;1.50;;;23.00;51.80;;;;;;4835743;29;20434;-90
2022/03/28 10:11:02;;;;;;;2.30;2.00;;;23.00;51.70;;;;;;4842152;29;20446;-90
2022/03/28 10:13:30;;;;;;;2.60;1.57;;;23.00;51.70;;;;;;4857196;29;20427;-90
2022/03/28 10:15:57;;;;;;;2.83;1.43;;;23.00;51.70;;;;;;4857224;29;20921;-90
2022/03/28 10:18:27;;;;;;;1.70;1.30;;;23.00;51.70;;;;;;4872520;29;20454;-90
2022/03/28 10:20:54;;;;;;;2.30;1.90;;;23.00;51.70;;;;;;4880379;29;20409;-89
2022/03/28 10:23:42;;;;;;;2.73;1.73;;;23.00;51.60;;;;;;4984965;28;20414;-89
2022/03/28 10:26:12;;;;;;;2.37;1.40;;;23.00;51.60;;;;;;4987328;28;20417;-90
2022/03/28 10:28:38;;;;;;;1.53;1.30;;;23.00;51.60;;;;;;4986870;28;20449;-90
2022/03/28 10:31:16;;;;;;;1.43;1.23;;;23.00;51.60;;;;;;5005858;28;20420;-90
2022/03/28 10:33:47;;;;;;;2.77;1.53;;;23.00;51.60;;;;;;5007193;28;20404;-89
2022/03/28 10:36:28;;;;;;;1.93;1.30;;;23.10;51.70;;;;;;5006919;28;20510;-90
2022/03/28 10:39:17;;;;;;;1.47;1.37;;;23.10;51.70;;;;;;5006086;28;20404;-89
2022/03/28 10:41:50;;;;;;;2.00;1.80;;;23.10;51.70;;;;;;5006383;28;20416;-89
2022/03/28 10:44:22;;;;;;;2.00;1.80;;;23.10;51.70;;;;;;5010786;28;20404;-89
2022/03/28 10:47:06;;;;;;;2.10;1.90;;;23.10;51.70;;;;;;5010977;28;20482;-88
2022/03/28 10:49:32;;;;;;;1.90;1.67;;;23.10;51.70;;;;;;5011102;28;20408;-90
2022/03/28 10:52:28;;;;;;;1.57;1.47;;;23.00;51.60;;;;;;5028567;28;20443;-90
2022/03/28 10:54:54;;;;;;;2.00;1.50;;;23.10;51.70;;;;;;5010961;28;20169;-90
2022/03/28 10:57:27;;;;;;;3.63;1.73;;;23.00;51.60;;;;;;5009883;28;20427;-90
2022/03/28 11:00:03;;;;;;;1.90;1.67;;;23.10;51.80;;;;;;5010074;28;20188;-90
2022/03/28 11:02:30;;;;;;;2.70;2.10;;;23.10;51.80;;;;;;5010416;28;20507;-91
2022/03/28 11:05:20;;;;;;;2.17;1.80;;;23.10;51.80;;;;;;5010084;28;20416;-90
2022/03/28 11:07:52;;;;;;;2.70;1.90;;;23.10;51.80;;;;;;5010863;28;20436;-90
2022/03/28 11:10:22;;;;;;;2.87;2.20;;;23.10;51.80;;;;;;5010921;28;20481;-90
2022/03/28 11:12:51;;;;;;;2.60;2.13;;;23.10;51.90;;;;;;5026415;28;20425;-90
2022/03/28 11:15:29;;;;;;;2.70;2.27;;;23.10;51.90;;;;;;5010685;28;20514;-90
2022/03/28 11:18:10;;;;;;;3.23;1.80;;;23.10;51.90;;;;;;5011529;28;20484;-90
2022/03/28 11:21:26;;;;;;;4.70;2.10;;;23.10;51.90;;;;;;5010488;28;20830;-91
2022/03/28 11:24:18;;;;;;;3.20;2.10;;;23.10;51.90;;;;;;4933999;29;20828;-89
2022/03/28 11:27:09;;;;;;;3.03;2.73;;;23.10;51.90;;;;;;4895558;29;20454;-91
2022/03/28 11:29:43;;;;;;;2.40;2.10;;;23.10;52.00;;;;;;4895961;29;20457;-92
2022/03/28 11:32:26;;;;;;;2.43;2.10;;;23.10;52.00;;;;;;4879982;29;20462;-91
2022/03/28 11:35:00;;;;;;;6.03;2.73;;;23.10;52.50;;;;;;4895722;29;20456;-91
2022/03/28 11:37:28;;;;;;;2.53;1.87;;;23.10;52.00;;;;;;4895886;29;20426;-91
2022/03/28 11:40:14;;;;;;;2.53;1.90;;;23.10;52.00;;;;;;4879765;29;20478;-91
2022/03/28 11:42:56;;;;;;;2.80;2.10;;;23.10;51.90;;;;;;4896155;29;20520;-90
2022/03/28 11:45:22;;;;;;;2.30;2.10;;;23.10;51.90;;;;;;4895528;29;20429;-91
2022/03/28 11:47:54;;;;;;;2.27;1.97;;;23.10;51.90;;;;;;4895674;29;20434;-91
2022/03/28 11:50:26;;;;;;;2.33;2.13;;;23.10;51.90;;;;;;4895068;29;20216;-92
2022/03/28 11:53:11;;;;;;;2.17;1.97;;;23.10;51.90;;;;;;4894422;29;20426;-91
2022/03/28 11:56:11;;;;;;;2.50;2.30;;;23.10;51.90;;;;;;4879082;29;20518;-92
2022/03/28 11:58:40;;;;;;;3.30;2.33;;;23.10;51.90;;;;;;4993876;28;20467;-91
2022/03/28 12:01:15;;;;;;;2.90;2.20;;;23.10;51.90;;;;;;5026318;28;20432;-91
2022/03/28 12:03:52;;;;;;;2.70;2.00;;;23.10;51.90;;;;;;5010518;28;20416;-91
2022/03/28 12:06:32;;;;;;;2.30;2.10;;;23.10;51.90;;;;;;5026390;28;21074;-91
2022/03/28 12:09:00;;;;;;;3.10;2.10;;;23.10;51.90;;;;;;5011135;28;20403;-91
2022/03/28 12:11:26;;;;;;;3.63;2.37;;;23.10;51.90;;;;;;5010424;28;20517;-92
2022/03/28 12:13:53;;;;;;;4.23;2.90;;;23.10;51.90;;;;;;5009984;28;20436;-91
2022/03/28 12:16:23;;;;;;;2.53;2.07;;;23.10;51.90;;;;;;5009773;28;20460;-91
2022/03/28 12:18:53;;;;;;;2.47;2.27;;;23.10;51.90;;;;;;5009653;28;20755;-92
2022/03/28 12:21:23;;;;;;;2.37;2.10;;;23.10;51.90;;;;;;5009488;28;20428;-91
2022/03/28 12:23:51;;;;;;;2.37;2.07;;;23.10;51.90;;;;;;5009771;28;20903;-91
2022/03/28 12:26:17;;;;;;;2.77;1.97;;;23.10;51.90;;;;;;5011233;28;20498;-91
2022/03/28 12:28:46;;;;;;;4.00;2.73;;;23.10;51.90;;;;;;4990847;28;20505;-90
2022/03/28 12:31:15;;;;;;;2.30;2.10;;;23.10;51.90;;;;;;4991732;28;20173;-90
2022/03/28 12:33:43;;;;;;;2.20;1.77;;;23.10;51.90;;;;;;4990857;28;20503;-92
2022/03/28 12:36:24;;;;;;;3.10;2.60;;;23.10;51.90;;;;;;4991098;28;20556;-91
2022/03/28 12:39:02;;;;;;;2.67;2.47;;;23.10;51.90;;;;;;4990380;28;20428;-91
2022/03/28 12:41:29;;;;;;;3.37;2.70;;;23.10;51.90;;;;;;5006016;28;20424;-91
2022/03/28 12:43:55;;;;;;;4.37;2.17;;;23.10;51.90;;;;;;4990683;28;20417;-91
2022/03/28 12:46:25;;;;;;;2.30;2.10;;;23.10;51.90;;;;;;5006373;28;20452;-91
2022/03/28 12:55:31;;;;;;;2.97;2.20;;;23.10;51.90;;;;;;4969150;28;20445;-91
2022/03/28 12:58:00;;;;;;;2.33;2.00;;;23.10;51.90;;;;;;4953683;29;20433;-91
2022/03/28 13:00:27;;;;;;;2.30;2.10;;;23.10;52.00;;;;;;4968769;28;20426;-91
2022/03/28 13:02:53;;;;;;;3.87;2.70;;;23.10;51.90;;;;;;4968309;29;20418;-91
2022/03/28 13:05:22;;;;;;;2.60;2.40;;;23.10;51.90;;;;;;4968046;28;20480;-91
2022/03/28 13:11:20;;;;;;;2.63;2.13;;;23.10;51.90;;;;;;4968846;29;20421;-90
2022/03/28 13:13:50;;;;;;;2.30;2.10;;;23.10;51.90;;;;;;4991516;28;20946;-91
2022/03/28 13:16:28;;;;;;;3.07;2.77;;;23.10;51.90;;;;;;4992144;28;20456;-91
2022/03/28 13:19:03;;;;;;;2.60;2.40;;;23.10;52.00;;;;;;4992103;28;20412;-90
2022/03/28 13:21:33;;;;;;;2.33;2.13;;;23.10;51.90;;;;;;5008101;28;20465;-91
2022/03/28 13:24:06;;;;;;;3.13;2.50;;;23.10;51.90;;;;;;5007765;28;20416;-90
2022/03/28 13:26:46;;;;;;;3.43;2.60;;;23.00;51.80;;;;;;5007486;28;20409;-91
2022/03/28 13:29:20;;;;;;;2.40;2.20;;;23.00;51.80;;;;;;5015842;28;20501;-90
2022/03/28 13:31:46;;;;;;;2.97;2.70;;;23.00;52.30;;;;;;5028407;28;20502;-90
2022/03/28 13:34:12;;;;;;;5.13;2.40;;;23.00;51.70;;;;;;5029136;28;20423;-90
2022/03/28 13:36:39;;;;;;;2.80;2.60;;;23.00;51.70;;;;;;5031434;28;20450;-89
2022/03/28 13:39:10;;;;;;;3.37;3.07;;;23.10;51.80;;;;;;5028510;28;20416;-89
2022/03/28 13:41:39;;;;;;;3.27;2.50;;;23.00;51.70;;;;;;5029209;28;20446;-89
2022/03/28 13:44:07;;;;;;;4.60;2.87;;;23.00;51.60;;;;;;5029469;28;20422;-90
2022/03/28 13:46:38;;;;;;;2.70;2.23;;;23.00;51.60;;;;;;5028454;28;20481;-89
2022/03/28 13:49:10;;;;;;;2.90;2.67;;;23.00;51.60;;;;;;5029543;28;20412;-89
2022/03/28 13:51:38;;;;;;;2.67;2.43;;;23.00;51.60;;;;;;5028618;28;20502;-90
2022/03/28 13:54:27;;;;;;;2.70;2.43;;;23.00;51.60;;;;;;5027412;28;20411;-90
2022/03/28 13:56:52;;;;;;;2.60;2.40;;;23.00;51.60;;;;;;5026495;28;20969;-90
2022/03/28 13:59:18;;;;;;;3.13;2.83;;;23.00;51.60;;;;;;5027288;28;20461;-90
2022/03/28 14:01:44;;;;;;;3.53;2.70;;;23.00;51.70;;;;;;5028100;28;20252;-90
2022/03/28 14:04:10;;;;;;;3.37;2.87;;;23.00;51.70;;;;;;5028019;28;20176;-90
2022/03/28 14:06:36;;;;;;;3.43;2.70;;;23.00;51.70;;;;;;5028590;28;20474;-91
2022/03/28 14:09:08;;;;;;;3.37;2.50;;;23.00;51.70;;;;;;5027462;28;20180;-92
2022/03/28 14:11:35;;;;;;;3.20;2.27;;;23.00;51.70;;;;;;5027808;28;20439;-92
2022/03/28 14:14:01;;;;;;;3.13;2.30;;;23.10;51.80;;;;;;5028906;28;20449;-91
2022/03/28 14:16:27;;;;;;;3.17;2.80;;;23.10;51.80;;;;;;5028412;28;20471;-92
2022/03/28 14:22:16;;;;;;;3.20;2.80;;;23.10;51.80;;;;;;5027612;28;20290;-92
2022/03/28 14:24:54;;;;;;;2.87;2.67;;;23.10;51.80;;;;;;5027123;28;20420;-92
2022/03/28 14:27:32;;;;;;;3.20;2.57;;;23.10;51.80;;;;;;5027116;28;20900;-93
2022/03/28 14:30:26;;;;;;;3.23;2.40;;;23.10;51.90;;;;;;5029387;28;20402;-92
2022/03/28 14:33:18;;;;;;;;;;;;;;;;;;;;;
2022/03/28 14:39:06;;;;;;;3.17;2.87;;;23.20;52.00;;;;;;4967280;29;20537;-92
2022/03/28 14:41:32;;;;;;;2.50;2.30;;;23.10;51.90;;;;;;4967572;29;20414;-93
2022/03/28 14:43:58;;;;;;;3.43;2.70;;;23.10;51.90;;;;;;4951348;29;20665;-91
2022/03/28 14:52:34;;;;;;;2.50;2.30;;;23.20;52.00;;;;;;4968309;29;20462;-93
2022/03/28 14:55:15;;;;;;;2.10;1.90;;;23.10;52.00;;;;;;4951801;29;20434;-91
2022/03/28 14:57:45;;;;;;;4.53;2.53;;;23.20;52.10;;;;;;4951141;29;20530;-92
2022/03/28 15:00:13;;;;;;;4.17;2.50;;;23.20;52.10;;;;;;4952237;29;20802;-91
2022/03/28 15:02:41;;;;;;;3.60;2.60;;;23.20;52.10;;;;;;4966591;29;20425;-91
2022/03/28 15:05:11;;;;;;;2.30;2.00;;;23.20;52.10;;;;;;4950930;29;20419;-92
2022/03/28 15:07:39;;;;;;;3.53;2.10;;;23.20;52.00;;;;;;5009451;28;20552;-91
2022/03/28 15:10:28;;;;;;;2.63;2.43;;;23.20;52.00;;;;;;5007043;28;20409;-92
2022/03/28 15:12:56;;;;;;;3.27;2.70;;;23.20;52.00;;;;;;5007190;28;20432;-92
2022/03/28 15:15:22;;;;;;;3.80;2.60;;;23.20;52.00;;;;;;5003666;28;20459;-91
2022/03/28 15:17:48;;;;;;;3.40;2.30;;;23.20;52.00;;;;;;5003703;28;20424;-91
2022/03/28 15:20:14;;;;;;;3.10;2.77;;;23.20;52.00;;;;;;5004612;28;20177;-91
2022/03/28 15:22:43;;;;;;;2.60;2.30;;;23.20;52.00;;;;;;5007204;28;20177;-88
2022/03/28 15:25:14;;;;;;;2.37;2.17;;;23.30;52.10;;;;;;5008319;28;20412;-89
2022/03/28 15:27:45;;;;;;;2.50;2.30;;;23.30;52.10;;;;;;5008949;28;20420;-90
2022/03/28 15:37:18;;;;;;;2.97;2.50;;;23.30;52.10;;;;;;4938216;28;20462;-90
2022/03/28 15:39:42;;;;;;;4.50;2.80;;;23.30;52.20;;;;;;4932207;29;20444;-90
2022/03/28 15:42:11;;;;;;;3.47;2.47;;;23.30;52.20;;;;;;4915015;29;20516;-92
2022/03/28 15:44:37;;;;;;;2.70;2.50;;;23.30;52.20;;;;;;4919738;29;20499;-91
2022/03/28 15:47:03;;;;;;;3.40;2.27;;;23.30;52.20;;;;;;4934321;29;20419;-91
2022/03/28 16:00:10;;;;;;;2.67;2.47;;;23.30;52.20;;;;;;4860345;29;20383;-91
2022/03/28 16:09:24;;;;;;;3.37;2.43;;;23.30;52.20;;;;;;4912755;29;20400;-91
2022/03/28 16:12:28;;;;;;;3.23;2.47;;;23.30;52.30;;;;;;4896678;29;20541;-90
2022/03/28 16:22:22;;;;;;;2.60;2.40;;;23.30;52.30;;;;;;4912553;29;20835;-91
2022/03/28 16:24:51;;;;;;;2.30;2.10;;;23.30;52.30;;;;;;4896684;29;20421;-91
2022/03/28 16:27:45;;;;;;;4.07;2.30;;;23.30;52.30;;;;;;4897142;29;20433;-91
2022/03/28 16:53:54;;;;;;;2.70;2.03;;;23.30;52.30;;;;;;4837510;29;20400;-92
2022/03/28 16:56:21;;;;;;;3.80;2.37;;;23.30;52.30;;;;;;4839784;29;20499;-91
2022/03/28 16:58:49;;;;;;;2.13;1.97;;;23.30;52.30;;;;;;4855225;29;20795;-91